Time;durP1;ratioP1;P1;durP2;ratioP2;P2;SDS_P1;SDS_P2;PMS_P1;PMS_P2;Temp;Humidity;BMP_temperature;BMP_pressure;BME280_temperature;BME280_humidity;BME280_pressure;Samples;Min_cycle;Max_cycle;Signal;HPM_P1;HPM_P2
2022/09/05 00:00:13;;;;;;;5.90;5.40;;;18.60;99.90;;;;;;5047292;28;20428;-46
2022/09/05 00:02:45;;;;;;;5.27;4.87;;;18.60;99.90;;;;;;5047590;28;20416;-47
2022/09/05 00:05:27;;;;;;;5.60;5.20;;;18.50;99.90;;;;;;5047395;28;20519;-51
2022/09/05 00:08:04;;;;;;;5.27;4.87;;;18.50;99.90;;;;;;5046726;28;20419;-48
2022/09/05 00:11:02;;;;;;;5.60;5.20;;;18.50;99.90;;;;;;5047210;28;20408;-47
2022/09/05 00:13:38;;;;;;;5.57;5.17;;;18.50;99.90;;;;;;5036211;28;20872;-47
2022/09/05 00:16:32;;;;;;;5.33;4.93;;;18.50;99.90;;;;;;5047269;28;20412;-45
2022/09/05 00:19:09;;;;;;;5.50;5.00;;;18.40;99.90;;;;;;5048780;28;20475;-48
2022/09/05 00:21:53;;;;;;;5.30;4.90;;;18.40;99.90;;;;;;5034213;28;20416;-47
2022/09/05 00:24:49;;;;;;;5.13;4.77;;;18.40;99.90;;;;;;5047221;28;20549;-45
2022/09/05 00:27:42;;;;;;;6.17;5.57;;;18.30;99.90;;;;;;5046745;28;20442;-47
2022/09/05 00:30:13;;;;;;;5.70;5.30;;;18.30;99.90;;;;;;5050324;28;20416;-49
2022/09/05 00:33:16;;;;;;;5.77;5.37;;;18.20;99.90;;;;;;5050962;28;20435;-46
2022/09/05 00:36:20;;;;;;;5.53;5.13;;;18.30;99.90;;;;;;5050661;28;20446;-45
2022/09/05 00:39:03;;;;;;;5.80;5.30;;;18.20;99.90;;;;;;5050108;28;20419;-48
2022/09/05 00:41:30;;;;;;;5.50;5.10;;;18.20;99.90;;;;;;5050879;28;20416;-49
2022/09/05 00:43:57;;;;;;;6.40;5.87;;;18.10;99.90;;;;;;5050315;28;20800;-45
2022/09/05 00:46:28;;;;;;;6.00;5.50;;;18.10;99.90;;;;;;5050770;28;20439;-46
2022/09/05 00:49:32;;;;;;;6.10;5.53;;;18.10;99.90;;;;;;5050072;28;20439;-50
2022/09/05 00:52:25;;;;;;;6.47;5.97;;;18.10;99.90;;;;;;5050375;28;20463;-46
2022/09/05 00:55:09;;;;;;;6.20;5.70;;;18.20;99.90;;;;;;5044548;28;20452;-46
2022/09/05 00:58:04;;;;;;;6.80;6.20;;;18.20;99.90;;;;;;5048733;28;20474;-45
2022/09/05 01:00:32;;;;;;;6.43;5.93;;;18.10;99.90;;;;;;5056507;28;20946;-49
2022/09/05 01:03:25;;;;;;;5.47;4.97;;;18.10;99.90;;;;;;5050248;28;20907;-47
2022/09/05 01:06:16;;;;;;;5.37;4.90;;;18.10;99.90;;;;;;5050345;28;20784;-47
2022/09/05 01:08:53;;;;;;;6.13;5.63;;;18.00;99.90;;;;;;5049622;28;20440;-44
2022/09/05 01:11:34;;;;;;;6.00;5.50;;;18.00;99.90;;;;;;5050097;28;20686;-47
2022/09/05 01:14:18;;;;;;;5.57;5.17;;;18.00;99.90;;;;;;5050217;28;20456;-47
2022/09/05 01:17:03;;;;;;;5.93;5.43;;;18.10;99.90;;;;;;5049620;28;20539;-47
2022/09/05 01:20:01;;;;;;;5.90;5.40;;;18.10;99.90;;;;;;5052648;28;20512;-47
2022/09/05 01:22:53;;;;;;;5.90;5.40;;;18.20;99.90;;;;;;5050648;28;20532;-45
2022/09/05 01:26:07;;;;;;;6.17;5.67;;;18.20;99.90;;;;;;5049794;28;20455;-45
2022/09/05 01:28:39;;;;;;;6.30;5.80;;;18.30;99.90;;;;;;5049387;28;20838;-47
2022/09/05 01:31:29;;;;;;;5.93;5.53;;;18.40;99.90;;;;;;5049723;28;20471;-48
2022/09/05 01:34:10;;;;;;;6.90;6.30;;;18.40;99.90;;;;;;5049821;28;20460;-45
2022/09/05 01:37:09;;;;;;;6.40;5.90;;;18.50;99.90;;;;;;5049217;28;20427;-48
2022/09/05 01:39:43;;;;;;;5.70;5.30;;;18.50;99.90;;;;;;5049604;28;20771;-44
2022/09/05 01:42:40;;;;;;;5.60;5.10;;;18.60;99.90;;;;;;5048718;28;20464;-44
2022/09/05 01:45:20;;;;;;;6.17;5.60;;;18.70;99.90;;;;;;5049291;28;20427;-48
2022/09/05 01:48:29;;;;;;;6.33;5.73;;;18.70;99.90;;;;;;5049077;28;20796;-46
2022/09/05 01:51:21;;;;;;;6.20;5.60;;;18.70;99.90;;;;;;5056812;28;20440;-47
2022/09/05 01:53:54;;;;;;;5.73;5.23;;;18.70;99.90;;;;;;5049299;28;20494;-50
2022/09/05 01:56:26;;;;;;;5.83;5.43;;;18.70;99.90;;;;;;5047949;28;20497;-46
2022/09/05 01:59:22;;;;;;;5.13;4.63;;;18.80;99.90;;;;;;5048622;28;20417;-44
2022/09/05 02:02:00;;;;;;;5.30;4.90;;;18.80;99.90;;;;;;5049094;28;20456;-45
2022/09/05 02:04:28;;;;;;;5.33;4.93;;;18.90;99.90;;;;;;5049196;28;20442;-46
2022/09/05 02:07:15;;;;;;;4.93;4.63;;;18.80;99.90;;;;;;5048288;28;20421;-47
2022/09/05 02:10:06;;;;;;;5.40;5.00;;;18.90;99.90;;;;;;5049301;28;20745;-47
2022/09/05 02:12:57;;;;;;;5.50;4.90;;;18.90;99.90;;;;;;5049248;28;20420;-45
2022/09/05 02:15:27;;;;;;;5.10;4.60;;;18.90;99.90;;;;;;5048849;28;20412;-49
2022/09/05 02:17:57;;;;;;;5.00;4.60;;;18.90;99.90;;;;;;5047979;28;20416;-44
2022/09/05 02:20:30;;;;;;;4.70;4.30;;;19.00;99.90;;;;;;5052503;28;20869;-47
2022/09/05 02:23:14;;;;;;;4.80;4.40;;;18.90;99.90;;;;;;5048538;28;20413;-47
2022/09/05 02:26:03;;;;;;;5.27;4.77;;;18.90;99.90;;;;;;5048954;28;20420;-47
2022/09/05 02:28:35;;;;;;;4.80;4.40;;;19.00;99.90;;;;;;5048203;28;20546;-46
2022/09/05 02:31:11;;;;;;;6.83;6.20;;;19.00;99.90;;;;;;5048543;28;20420;-47
2022/09/05 02:33:53;;;;;;;4.17;3.77;;;19.00;99.90;;;;;;5048582;28;20447;-45
2022/09/05 02:36:25;;;;;;;3.60;3.30;;;19.00;99.90;;;;;;5048411;28;20938;-45
2022/09/05 02:39:15;;;;;;;4.20;3.90;;;19.10;99.90;;;;;;5048001;28;20412;-48
2022/09/05 02:41:58;;;;;;;4.37;3.97;;;19.10;99.90;;;;;;5048485;28;20412;-45
2022/09/05 02:44:36;;;;;;;3.80;3.50;;;19.10;99.90;;;;;;5048654;28;20416;-51
2022/09/05 02:47:25;;;;;;;4.53;4.23;;;19.20;99.90;;;;;;5047551;28;20420;-44
2022/09/05 02:50:24;;;;;;;4.37;3.90;;;19.20;99.90;;;;;;5048119;28;20448;-44
2022/09/05 02:52:51;;;;;;;4.07;3.67;;;19.30;99.90;;;;;;5048211;28;20415;-47
2022/09/05 02:55:37;;;;;;;4.23;3.83;;;19.40;99.90;;;;;;5047879;28;20467;-44
2022/09/05 02:58:27;;;;;;;4.33;4.03;;;19.40;99.90;;;;;;5046827;28;20737;-48
2022/09/05 03:01:21;;;;;;;4.27;3.97;;;19.50;99.90;;;;;;5048550;28;20435;-45
2022/09/05 03:04:02;;;;;;;4.20;3.80;;;19.50;99.90;;;;;;5048257;28;20427;-45
2022/09/05 03:06:48;;;;;;;3.87;3.57;;;19.50;99.90;;;;;;5048244;28;20810;-45
2022/09/05 03:09:43;;;;;;;4.70;4.30;;;19.50;99.90;;;;;;5048147;28;20427;-45
2022/09/05 03:12:15;;;;;;;4.00;3.60;;;19.60;99.90;;;;;;5055029;28;20439;-47
2022/09/05 03:15:11;;;;;;;5.23;3.80;;;19.60;99.90;;;;;;5047804;28;20456;-45
2022/09/05 03:17:53;;;;;;;4.33;3.93;;;19.60;99.90;;;;;;5047047;28;20416;-44
2022/09/05 03:20:37;;;;;;;4.60;3.77;;;19.60;99.90;;;;;;5050252;28;20414;-44
2022/09/05 03:23:27;;;;;;;3.73;3.43;;;19.60;99.90;;;;;;5047554;28;20424;-45
2022/09/05 03:26:11;;;;;;;3.70;3.40;;;19.60;99.90;;;;;;5047852;28;20419;-47
2022/09/05 03:29:14;;;;;;;3.73;3.43;;;19.60;99.90;;;;;;5046798;28;20802;-45
2022/09/05 03:31:57;;;;;;;4.10;3.53;;;19.60;99.90;;;;;;5048070;28;21081;-48
2022/09/05 03:34:42;;;;;;;4.27;3.87;;;19.60;99.90;;;;;;5046238;28;20994;-45
2022/09/05 03:37:16;;;;;;;3.73;3.40;;;19.50;99.90;;;;;;5046851;28;20416;-47
2022/09/05 03:40:01;;;;;;;4.20;3.90;;;19.50;99.90;;;;;;5047564;28;20422;-47
2022/09/05 03:42:57;;;;;;;4.73;4.30;;;19.50;99.90;;;;;;5047716;28;20827;-47
2022/09/05 03:45:57;;;;;;;5.77;4.60;;;19.50;99.90;;;;;;5047153;28;20443;-49
2022/09/05 03:48:35;;;;;;;4.37;3.97;;;19.40;99.90;;;;;;5047625;28;20424;-47
2022/09/05 03:51:23;;;;;;;3.80;3.43;;;19.40;99.90;;;;;;5047602;28;20419;-46
2022/09/05 03:54:22;;;;;;;4.70;3.63;;;19.30;99.90;;;;;;5047370;28;20456;-45
2022/09/05 03:57:47;;;;;;;4.20;3.67;;;19.20;99.90;;;;;;5045974;28;20413;-45
2022/09/05 04:00:21;;;;;;;4.00;3.70;;;19.00;99.90;;;;;;5064257;28;20451;-47
2022/09/05 04:02:46;;;;;;;4.50;3.60;;;19.00;99.90;;;;;;5039387;28;20954;-46
2022/09/05 04:05:24;;;;;;;4.37;3.97;;;19.00;99.90;;;;;;5050216;28;20431;-47
2022/09/05 04:08:19;;;;;;;4.13;3.83;;;18.90;99.90;;;;;;5051040;28;20185;-46
2022/09/05 04:11:07;;;;;;;3.53;3.23;;;18.80;99.90;;;;;;5052832;28;20432;-45
2022/09/05 04:13:44;;;;;;;3.63;3.33;;;18.70;99.90;;;;;;5051676;28;21043;-46
2022/09/05 04:16:30;;;;;;;4.03;3.73;;;18.70;99.90;;;;;;5051523;28;20799;-51
2022/09/05 04:19:11;;;;;;;4.03;3.73;;;18.50;99.90;;;;;;5052116;28;20497;-46
2022/09/05 04:21:44;;;;;;;4.17;3.80;;;18.50;99.90;;;;;;5051702;28;20509;-45
2022/09/05 04:24:23;;;;;;;3.60;3.30;;;18.50;99.90;;;;;;5051116;28;20412;-47
2022/09/05 04:27:19;;;;;;;4.37;3.97;;;18.40;99.90;;;;;;5050131;28;20506;-49
2022/09/05 04:29:47;;;;;;;4.03;3.67;;;18.50;99.90;;;;;;5051301;28;21055;-49
2022/09/05 04:32:46;;;;;;;4.17;3.77;;;18.60;99.90;;;;;;5051053;28;20849;-47
2022/09/05 04:35:24;;;;;;;3.70;3.40;;;18.60;99.90;;;;;;5050419;28;20513;-49
2022/09/05 04:38:08;;;;;;;3.60;3.30;;;18.60;99.90;;;;;;5050345;28;20416;-45
2022/09/05 04:40:53;;;;;;;4.10;3.80;;;18.50;99.90;;;;;;5050893;28;20614;-46
2022/09/05 04:43:28;;;;;;;4.07;3.77;;;18.50;99.90;;;;;;5050795;28;20434;-47
2022/09/05 04:46:17;;;;;;;4.40;4.00;;;18.40;99.90;;;;;;5045046;28;20848;-44
2022/09/05 04:49:00;;;;;;;4.07;3.70;;;18.40;99.90;;;;;;5046291;28;20427;-46
2022/09/05 04:51:53;;;;;;;3.37;3.17;;;18.30;99.90;;;;;;5045344;28;20762;-45
2022/09/05 04:54:35;;;;;;;3.47;3.20;;;18.30;99.90;;;;;;5050123;28;20709;-47
2022/09/05 04:57:10;;;;;;;3.63;3.33;;;18.40;99.90;;;;;;5048615;28;20993;-47
2022/09/05 05:00:02;;;;;;;3.70;3.40;;;18.50;99.90;;;;;;5049343;28;20500;-52
2022/09/05 05:02:42;;;;;;;3.60;3.30;;;18.70;99.90;;;;;;5057563;28;20923;-45
2022/09/05 05:05:18;;;;;;;4.90;3.30;;;18.80;99.90;;;;;;5050251;28;20440;-47
2022/09/05 05:07:57;;;;;;;4.77;3.10;;;18.90;99.90;;;;;;5049439;28;20426;-47
2022/09/05 05:10:39;;;;;;;3.80;3.17;;;18.90;99.90;;;;;;5050689;28;20451;-51
2022/09/05 05:13:15;;;;;;;3.73;3.40;;;18.90;99.90;;;;;;5051184;28;20428;-45
2022/09/05 05:15:52;;;;;;;3.40;3.10;;;18.90;99.90;;;;;;5050401;28;20427;-46
2022/09/05 05:18:39;;;;;;;3.13;2.90;;;18.90;99.90;;;;;;5050740;28;20599;-51
2022/09/05 05:21:08;;;;;;;3.30;3.00;;;18.90;99.90;;;;;;5054702;28;20424;-46
2022/09/05 05:23:46;;;;;;;3.47;3.17;;;18.90;99.90;;;;;;5051298;28;20432;-45
2022/09/05 05:26:26;;;;;;;3.00;2.80;;;19.00;99.90;;;;;;5051266;28;20416;-45
2022/09/05 05:29:01;;;;;;;3.40;3.10;;;19.00;99.90;;;;;;5050578;28;20416;-49
2022/09/05 05:31:32;;;;;;;3.50;3.27;;;19.00;99.90;;;;;;5050997;28;20427;-47
2022/09/05 05:34:04;;;;;;;4.03;3.00;;;19.10;99.90;;;;;;5050902;28;20554;-47
2022/09/05 05:36:36;;;;;;;4.90;3.00;;;19.10;99.90;;;;;;5051057;28;20431;-47
2022/09/05 05:39:34;;;;;;;3.57;3.27;;;19.10;99.90;;;;;;5053630;28;20426;-46
2022/09/05 05:42:02;;;;;;;2.87;2.67;;;19.10;99.90;;;;;;5042115;28;20429;-48
2022/09/05 05:44:32;;;;;;;3.50;3.20;;;19.20;99.90;;;;;;5050909;28;20428;-47
2022/09/05 05:47:25;;;;;;;5.10;3.77;;;19.20;99.90;;;;;;5047280;28;20461;-47
2022/09/05 05:50:18;;;;;;;8.33;3.33;;;19.30;99.90;;;;;;5046834;28;20500;-48
2022/09/05 05:53:22;;;;;;;5.13;3.60;;;19.30;99.90;;;;;;5045994;28;20439;-44
2022/09/05 05:56:19;;;;;;;3.97;3.20;;;19.40;99.90;;;;;;5038908;28;20435;-45
2022/09/05 05:58:51;;;;;;;3.43;3.13;;;19.60;99.90;;;;;;5049493;28;20420;-46
2022/09/05 06:01:36;;;;;;;5.00;3.17;;;19.70;99.90;;;;;;5056923;28;21079;-48
2022/09/05 06:04:14;;;;;;;3.90;3.60;;;19.80;99.90;;;;;;5046535;28;20419;-45
2022/09/05 06:06:51;;;;;;;4.60;3.13;;;20.00;99.90;;;;;;5049863;28;20826;-49
2022/09/05 06:09:38;;;;;;;6.37;3.03;;;20.10;99.90;;;;;;5029985;28;20976;-46
2022/09/05 06:12:16;;;;;;;3.07;2.87;;;20.20;99.90;;;;;;5039273;28;20477;-45
2022/09/05 06:15:07;;;;;;;3.30;3.00;;;20.20;99.90;;;;;;5050408;28;20455;-49
2022/09/05 06:17:49;;;;;;;3.83;2.90;;;20.40;99.90;;;;;;5049725;28;20428;-48
2022/09/05 06:20:57;;;;;;;3.97;3.20;;;20.60;99.90;;;;;;5052806;28;20471;-48
2022/09/05 06:23:47;;;;;;;3.30;3.00;;;20.70;99.90;;;;;;5049475;28;20462;-44
2022/09/05 06:26:20;;;;;;;3.10;2.80;;;20.90;99.90;;;;;;5049402;28;20550;-47
2022/09/05 06:28:54;;;;;;;5.37;2.93;;;21.00;99.90;;;;;;5049797;28;20484;-47
2022/09/05 06:31:50;;;;;;;3.40;3.03;;;21.10;99.90;;;;;;5050107;28;20424;-51
2022/09/05 06:34:25;;;;;;;5.23;3.03;;;21.20;99.90;;;;;;5050353;28;20623;-48
2022/09/05 06:37:06;;;;;;;3.53;3.23;;;21.30;99.90;;;;;;5049447;28;20412;-49
2022/09/05 06:39:50;;;;;;;7.10;3.40;;;21.40;99.90;;;;;;5050301;28;20446;-47
2022/09/05 06:42:36;;;;;;;3.40;2.83;;;21.50;99.90;;;;;;5049641;28;20820;-50
2022/09/05 06:45:13;;;;;;;7.43;3.10;;;21.60;99.90;;;;;;5049922;28;20420;-49
2022/09/05 06:47:43;;;;;;;5.20;3.33;;;21.60;99.90;;;;;;5049027;28;20428;-46
2022/09/05 06:50:20;;;;;;;4.30;3.20;;;21.70;99.90;;;;;;5050311;28;20432;-46
2022/09/05 06:52:58;;;;;;;4.60;3.00;;;21.80;99.90;;;;;;5045651;28;20430;-47
2022/09/05 06:55:51;;;;;;;4.13;3.03;;;21.90;99.90;;;;;;5048410;28;20468;-48
2022/09/05 06:58:41;;;;;;;5.13;3.07;;;22.00;99.90;;;;;;5047233;28;20755;-49
2022/09/05 07:01:08;;;;;;;6.77;3.27;;;22.10;99.90;;;;;;5060299;28;20471;-52
2022/09/05 07:03:47;;;;;;;3.80;3.10;;;22.20;99.90;;;;;;5069596;28;20427;-48
2022/09/05 07:06:34;;;;;;;7.77;3.23;;;22.20;99.90;;;;;;5069367;28;20435;-50
2022/09/05 07:09:29;;;;;;;4.13;3.00;;;22.30;99.90;;;;;;5066728;28;20965;-50
2022/09/05 07:12:15;;;;;;;6.00;3.97;;;22.30;99.90;;;;;;5047966;28;20477;-47
2022/09/05 07:14:49;;;;;;;4.57;3.30;;;22.30;99.90;;;;;;5049366;28;20462;-46
2022/09/05 07:17:40;;;;;;;3.37;3.13;;;22.40;99.90;;;;;;5048582;28;20412;-47
2022/09/05 07:20:19;;;;;;;6.23;3.67;;;22.40;99.90;;;;;;5052885;28;20505;-50
2022/09/05 07:23:01;;;;;;;6.73;3.30;;;22.40;99.90;;;;;;5049115;28;20427;-48
2022/09/05 07:25:30;;;;;;;5.43;3.63;;;22.50;99.90;;;;;;5049197;28;20845;-48
2022/09/05 07:28:07;;;;;;;7.93;3.40;;;22.50;99.90;;;;;;5048264;28;20448;-47
2022/09/05 07:30:35;;;;;;;6.87;3.20;;;22.60;99.90;;;;;;5049053;28;20481;-50
2022/09/05 07:33:03;;;;;;;4.20;3.20;;;22.70;99.90;;;;;;5049142;28;20508;-50
2022/09/05 07:35:38;;;;;;;6.27;3.07;;;22.70;99.90;;;;;;5048739;28;20459;-47
2022/09/05 07:38:12;;;;;;;4.93;3.10;;;22.80;99.90;;;;;;5048199;28;20945;-48
2022/09/05 07:40:50;;;;;;;7.20;3.10;;;22.90;99.90;;;;;;5048660;28;20473;-47
2022/09/05 07:43:30;;;;;;;4.67;3.10;;;22.90;99.90;;;;;;5048384;28;20438;-50
2022/09/05 07:46:16;;;;;;;4.43;2.93;;;23.00;99.90;;;;;;5048810;28;20442;-44
2022/09/05 07:49:01;;;;;;;3.43;3.00;;;23.10;99.90;;;;;;5047783;28;20511;-47
2022/09/05 07:51:36;;;;;;;2.47;2.27;;;23.20;99.90;;;;;;5048971;28;20420;-49
2022/09/05 07:54:17;;;;;;;3.80;2.97;;;23.20;99.90;;;;;;5048748;28;20521;-50
2022/09/05 07:56:53;;;;;;;4.37;3.00;;;23.30;99.90;;;;;;5047420;28;20424;-44
2022/09/05 07:59:21;;;;;;;5.30;2.97;;;23.40;99.90;;;;;;5048714;28;20416;-47
2022/09/05 08:01:52;;;;;;;3.00;2.80;;;23.40;99.90;;;;;;5048837;28;20412;-47
2022/09/05 08:04:27;;;;;;;3.30;2.83;;;23.40;99.90;;;;;;5048718;28;20903;-46
2022/09/05 08:06:59;;;;;;;3.70;3.00;;;23.50;99.90;;;;;;5048229;28;20447;-47
2022/09/05 08:09:33;;;;;;;3.07;2.77;;;23.60;99.90;;;;;;5048900;28;20656;-45
2022/09/05 08:12:08;;;;;;;3.30;3.10;;;23.70;99.90;;;;;;5047426;28;20428;-48
2022/09/05 08:15:13;;;;;;;3.03;2.80;;;23.80;99.90;;;;;;5048725;28;20455;-50
2022/09/05 08:18:05;;;;;;;3.73;3.03;;;23.80;99.90;;;;;;5051191;28;20432;-47
2022/09/05 08:20:37;;;;;;;4.93;3.00;;;23.90;99.90;;;;;;5062873;28;20420;-45
2022/09/05 08:23:24;;;;;;;4.80;3.17;;;24.00;99.90;;;;;;5050817;28;20423;-46
2022/09/05 08:25:58;;;;;;;4.20;2.67;;;24.00;99.90;;;;;;5048674;28;20451;-47
2022/09/05 08:29:02;;;;;;;5.47;2.77;;;24.00;99.90;;;;;;5048092;28;20443;-48
2022/09/05 08:31:37;;;;;;;3.53;3.00;;;24.10;99.90;;;;;;5048655;28;20780;-47
2022/09/05 08:34:10;;;;;;;3.60;2.40;;;24.10;99.90;;;;;;5048737;28;20467;-49
2022/09/05 08:36:47;;;;;;;7.13;2.77;;;24.20;98.70;;;;;;5048007;28;20416;-45
2022/09/05 08:39:20;;;;;;;4.37;2.70;;;24.20;98.50;;;;;;5048741;28;20424;-46
2022/09/05 08:42:07;;;;;;;3.70;2.70;;;24.20;97.60;;;;;;5048498;28;20809;-48
2022/09/05 08:44:53;;;;;;;2.57;2.37;;;24.30;98.70;;;;;;5048654;28;20423;-46
2022/09/05 08:47:52;;;;;;;3.30;2.40;;;24.40;97.50;;;;;;5047749;28;20427;-46
2022/09/05 08:50:29;;;;;;;3.03;2.60;;;24.50;98.10;;;;;;5049998;28;20452;-49
2022/09/05 08:53:01;;;;;;;3.70;2.37;;;24.50;98.10;;;;;;5051972;28;20416;-46
2022/09/05 08:55:26;;;;;;;3.40;2.53;;;24.70;97.90;;;;;;5052006;28;20452;-45
2022/09/05 08:58:01;;;;;;;3.27;2.30;;;24.70;96.90;;;;;;5050018;28;20466;-45
2022/09/05 09:00:34;;;;;;;3.70;2.40;;;24.80;96.50;;;;;;5051939;28;20182;-45
2022/09/05 09:03:22;;;;;;;2.40;2.20;;;24.90;96.20;;;;;;5067156;28;20435;-48
2022/09/05 09:05:54;;;;;;;4.00;2.50;;;25.00;96.40;;;;;;5051752;28;20474;-47
2022/09/05 09:08:38;;;;;;;2.40;2.17;;;25.00;96.20;;;;;;5050886;28;20416;-51
2022/09/05 09:11:11;;;;;;;2.83;2.60;;;25.10;94.70;;;;;;5051762;28;20412;-47
2022/09/05 09:14:15;;;;;;;2.53;2.33;;;25.10;95.00;;;;;;5051513;28;20812;-45
2022/09/05 09:17:12;;;;;;;4.17;2.20;;;25.20;94.80;;;;;;5050757;28;20985;-47
2022/09/05 09:20:06;;;;;;;2.70;2.50;;;25.30;95.20;;;;;;5054372;28;20416;-47
2022/09/05 09:22:53;;;;;;;2.60;2.40;;;25.40;94.80;;;;;;5051242;28;20448;-46
2022/09/05 09:25:24;;;;;;;4.07;2.20;;;25.60;94.50;;;;;;5051322;28;20452;-47
2022/09/05 09:28:03;;;;;;;2.37;2.20;;;25.70;93.70;;;;;;5050272;28;20515;-47
2022/09/05 09:30:32;;;;;;;3.60;2.40;;;25.80;93.40;;;;;;5051403;28;20435;-46
2022/09/05 09:33:03;;;;;;;2.53;2.33;;;25.80;93.20;;;;;;5051138;28;21070;-50
2022/09/05 09:35:44;;;;;;;2.40;2.20;;;25.90;93.40;;;;;;5051112;28;20464;-46
2022/09/05 09:38:39;;;;;;;2.57;2.37;;;26.10;92.50;;;;;;5050422;28;20420;-45
2022/09/05 09:41:30;;;;;;;2.50;2.30;;;26.20;91.10;;;;;;5051208;28;20802;-47
2022/09/05 09:44:20;;;;;;;2.60;2.40;;;26.40;90.60;;;;;;5050971;28;20470;-44
2022/09/05 09:46:49;;;;;;;5.33;2.50;;;26.50;90.70;;;;;;5050435;28;20511;-47
2022/09/05 09:49:59;;;;;;;2.30;2.10;;;26.70;91.20;;;;;;5050996;28;20441;-49
2022/09/05 09:52:49;;;;;;;2.20;2.10;;;26.80;89.70;;;;;;5052744;28;20416;-50
2022/09/05 09:56:04;;;;;;;2.70;2.10;;;26.90;87.80;;;;;;5050916;28;21069;-45
2022/09/05 09:58:54;;;;;;;2.30;2.10;;;27.00;88.80;;;;;;5067151;28;20523;-47
2022/09/05 10:01:37;;;;;;;2.30;2.10;;;27.00;86.80;;;;;;5067343;28;20461;-45
2022/09/05 10:04:21;;;;;;;3.17;2.60;;;26.90;85.80;;;;;;5041807;28;20821;-44
2022/09/05 10:06:55;;;;;;;2.47;2.00;;;26.80;84.50;;;;;;5049825;28;21188;-48
2022/09/05 10:10:03;;;;;;;2.17;1.97;;;26.70;84.70;;;;;;5050498;28;20423;-47
2022/09/05 10:13:04;;;;;;;2.37;2.17;;;26.60;85.70;;;;;;5050367;28;20451;-48
2022/09/05 10:15:39;;;;;;;3.77;2.40;;;26.60;86.10;;;;;;5067232;28;20573;-44
2022/09/05 10:18:32;;;;;;;2.20;2.00;;;26.60;86.10;;;;;;5039826;28;20486;-46
2022/09/05 10:21:26;;;;;;;2.77;2.30;;;26.70;86.50;;;;;;5052275;28;20480;-48
2022/09/05 10:24:12;;;;;;;2.17;2.00;;;26.60;87.30;;;;;;5049446;28;20417;-46
2022/09/05 10:27:03;;;;;;;2.00;1.90;;;26.70;87.10;;;;;;5049381;28;20420;-46
2022/09/05 10:29:47;;;;;;;3.63;2.50;;;26.60;86.40;;;;;;5047485;28;20424;-48
2022/09/05 10:32:39;;;;;;;2.87;2.10;;;26.70;86.10;;;;;;5048961;28;20840;-46
2022/09/05 10:35:17;;;;;;;2.67;2.47;;;26.80;86.20;;;;;;5048792;28;20464;-49
2022/09/05 10:37:48;;;;;;;2.20;2.10;;;26.70;87.30;;;;;;5049352;28;20416;-49
2022/09/05 10:40:19;;;;;;;3.30;2.40;;;26.70;87.50;;;;;;5049734;28;20436;-49
2022/09/05 10:43:08;;;;;;;3.30;2.40;;;26.80;86.50;;;;;;5048929;28;20989;-47
2022/09/05 10:45:52;;;;;;;2.97;2.60;;;26.80;85.80;;;;;;5043398;28;20435;-47
2022/09/05 10:48:26;;;;;;;4.93;2.40;;;26.70;86.20;;;;;;5048985;28;20408;-48
2022/09/05 10:51:15;;;;;;;2.23;2.07;;;26.70;86.20;;;;;;5037291;28;20942;-50
2022/09/05 10:54:18;;;;;;;4.40;2.70;;;26.70;86.60;;;;;;5058063;28;20464;-52
2022/09/05 10:56:55;;;;;;;2.20;2.00;;;26.70;86.10;;;;;;5048196;28;20416;-50
2022/09/05 10:59:28;;;;;;;3.13;2.57;;;26.70;85.50;;;;;;5050030;28;20444;-47
2022/09/05 11:02:25;;;;;;;2.20;2.00;;;26.80;84.80;;;;;;5049746;28;20787;-48
2022/09/05 11:05:14;;;;;;;3.27;2.27;;;27.00;86.30;;;;;;5050277;28;20812;-49
2022/09/05 11:07:48;;;;;;;2.50;2.30;;;27.10;83.80;;;;;;5045823;28;20433;-48
2022/09/05 11:10:22;;;;;;;5.33;2.73;;;27.00;87.60;;;;;;5042197;28;20459;-49
2022/09/05 11:13:13;;;;;;;2.60;2.40;;;27.10;86.70;;;;;;5046012;28;20528;-49
2022/09/05 11:15:58;;;;;;;2.77;2.27;;;27.30;88.60;;;;;;5059185;28;20761;-50
2022/09/05 11:18:53;;;;;;;2.37;2.17;;;27.50;83.50;;;;;;5040459;28;20941;-46
2022/09/05 11:21:48;;;;;;;2.37;2.00;;;27.70;84.10;;;;;;5048291;28;20416;-47
2022/09/05 11:24:23;;;;;;;2.37;2.20;;;27.80;85.40;;;;;;5047884;28;20976;-48
2022/09/05 11:27:12;;;;;;;2.50;2.30;;;27.90;85.30;;;;;;5048150;28;20466;-50
2022/09/05 11:29:49;;;;;;;2.80;2.60;;;27.90;82.40;;;;;;5048563;28;20490;-50
2022/09/05 11:32:46;;;;;;;2.63;2.43;;;27.80;81.20;;;;;;5049548;28;20456;-50
2022/09/05 11:35:19;;;;;;;2.57;2.37;;;27.90;83.80;;;;;;5049668;28;21092;-52
2022/09/05 11:38:10;;;;;;;2.80;2.40;;;28.00;81.70;;;;;;5048769;28;20412;-48
2022/09/05 11:41:12;;;;;;;2.37;2.17;;;28.10;80.80;;;;;;5049471;28;20404;-47
2022/09/05 11:44:15;;;;;;;2.70;2.40;;;28.10;79.90;;;;;;5049298;28;20479;-51
2022/09/05 11:47:18;;;;;;;2.60;2.00;;;28.30;82.20;;;;;;5047073;28;20428;-50
2022/09/05 11:50:06;;;;;;;3.03;2.40;;;28.40;77.70;;;;;;5049236;28;20503;-47
2022/09/05 11:52:57;;;;;;;2.70;2.50;;;28.50;80.30;;;;;;5049176;28;20409;-46
2022/09/05 11:55:39;;;;;;;2.40;2.20;;;28.50;78.00;;;;;;5049017;28;20456;-46
2022/09/05 11:58:16;;;;;;;2.57;2.37;;;28.60;76.70;;;;;;5047408;28;20494;-47
2022/09/05 12:00:58;;;;;;;2.53;2.33;;;28.60;78.10;;;;;;5049281;28;20442;-47
2022/09/05 12:03:37;;;;;;;2.00;1.90;;;28.70;78.90;;;;;;5049097;28;20754;-49
2022/09/05 12:06:45;;;;;;;2.67;2.47;;;28.70;80.00;;;;;;5049031;28;20448;-49
2022/09/05 12:09:43;;;;;;;2.17;1.97;;;28.70;81.10;;;;;;5049823;28;20420;-51
2022/09/05 12:12:25;;;;;;;2.37;2.23;;;28.80;79.50;;;;;;5049204;28;20447;-44
2022/09/05 12:15:24;;;;;;;2.17;1.83;;;28.80;75.70;;;;;;5048780;28;20463;-49
2022/09/05 12:18:08;;;;;;;2.60;2.17;;;28.90;76.70;;;;;;5048216;28;20505;-49
2022/09/05 12:20:52;;;;;;;3.10;2.50;;;29.00;73.40;;;;;;5052440;28;20497;-50
2022/09/05 12:23:42;;;;;;;2.40;2.20;;;29.00;74.60;;;;;;5049164;28;20431;-45
2022/09/05 12:26:18;;;;;;;2.70;2.50;;;28.90;73.10;;;;;;5051635;28;20412;-50
2022/09/05 12:29:03;;;;;;;6.83;2.70;;;29.00;75.00;;;;;;5052522;28;20412;-47
2022/09/05 12:31:38;;;;;;;2.33;2.23;;;29.00;72.50;;;;;;5052768;28;20919;-45
2022/09/05 12:34:17;;;;;;;2.60;2.40;;;29.00;75.00;;;;;;5052648;28;20466;-47
2022/09/05 12:36:48;;;;;;;2.40;2.20;;;29.10;77.20;;;;;;5051836;28;20481;-48
2022/09/05 12:39:34;;;;;;;2.77;2.20;;;29.20;76.10;;;;;;5052674;28;20420;-50
2022/09/05 12:42:20;;;;;;;2.50;2.30;;;29.20;73.90;;;;;;5052381;28;20424;-45
2022/09/05 12:45:01;;;;;;;2.03;1.93;;;29.30;72.50;;;;;;5052429;28;20513;-51
2022/09/05 12:47:30;;;;;;;2.37;2.17;;;29.30;71.50;;;;;;5051874;28;20420;-44
2022/09/05 12:50:05;;;;;;;2.23;2.03;;;29.30;75.20;;;;;;5052459;28;21061;-48
2022/09/05 12:52:35;;;;;;;2.57;2.23;;;29.40;70.00;;;;;;5052375;28;20461;-50
2022/09/05 12:55:16;;;;;;;2.63;2.30;;;29.40;71.80;;;;;;5052406;28;20803;-48
2022/09/05 12:57:44;;;;;;;2.30;2.10;;;29.40;68.50;;;;;;5050055;28;20950;-47
2022/09/05 13:00:17;;;;;;;2.60;2.40;;;29.30;67.50;;;;;;5052286;28;20434;-49
2022/09/05 13:02:49;;;;;;;2.23;2.03;;;29.30;68.80;;;;;;5052223;28;20424;-46
2022/09/05 13:05:17;;;;;;;2.33;2.13;;;29.30;71.60;;;;;;5052015;28;20535;-47
2022/09/05 13:07:51;;;;;;;3.30;2.10;;;29.40;68.00;;;;;;5051306;28;20428;-48
2022/09/05 13:10:39;;;;;;;2.03;1.93;;;29.40;68.20;;;;;;5052248;28;20436;-49
2022/09/05 13:13:12;;;;;;;2.17;2.07;;;29.40;69.90;;;;;;5052027;28;20436;-44
2022/09/05 13:15:46;;;;;;;3.23;2.33;;;29.40;71.10;;;;;;5051860;28;20522;-47
2022/09/05 13:18:17;;;;;;;2.40;2.20;;;29.50;71.00;;;;;;5050945;28;20416;-46
2022/09/05 13:21:04;;;;;;;2.30;2.20;;;29.50;67.70;;;;;;5055317;28;20991;-49
2022/09/05 13:23:34;;;;;;;2.70;2.33;;;29.40;66.50;;;;;;5052088;28;20931;-49
2022/09/05 13:26:16;;;;;;;3.90;2.50;;;29.40;65.50;;;;;;5051542;28;20444;-48
2022/09/05 13:29:11;;;;;;;2.50;2.30;;;29.30;65.30;;;;;;5050883;28;20458;-48
2022/09/05 13:31:40;;;;;;;3.83;2.10;;;29.20;67.60;;;;;;5051465;28;20427;-52
2022/09/05 13:34:26;;;;;;;2.20;2.00;;;29.20;66.00;;;;;;5051292;28;20586;-46
2022/09/05 13:37:05;;;;;;;2.30;2.10;;;29.20;65.90;;;;;;5049480;28;20515;-48
2022/09/05 13:39:36;;;;;;;2.50;2.30;;;29.20;66.50;;;;;;5050278;28;20791;-48
2022/09/05 13:42:02;;;;;;;2.50;2.30;;;29.10;65.50;;;;;;5051130;28;20500;-47
2022/09/05 13:44:35;;;;;;;2.33;1.80;;;29.10;65.50;;;;;;5051428;28;20420;-49
2022/09/05 13:47:26;;;;;;;2.33;2.20;;;29.10;67.20;;;;;;5050586;28;20466;-46
2022/09/05 13:50:18;;;;;;;2.67;2.47;;;29.10;63.50;;;;;;5051632;28;20724;-52
2022/09/05 13:52:56;;;;;;;2.00;1.90;;;29.10;64.40;;;;;;5051083;28;20442;-51
2022/09/05 13:55:52;;;;;;;2.40;2.20;;;29.00;66.00;;;;;;5051047;28;20514;-49
2022/09/05 13:58:41;;;;;;;3.20;2.10;;;29.00;63.50;;;;;;5050165;28;20435;-50
2022/09/05 14:01:30;;;;;;;2.23;2.03;;;28.90;64.20;;;;;;5051055;28;20412;-48
2022/09/05 14:04:23;;;;;;;3.10;2.50;;;28.80;65.50;;;;;;5050474;28;20470;-49
2022/09/05 14:07:25;;;;;;;2.50;2.30;;;28.90;64.10;;;;;;5065327;28;20879;-45
2022/09/05 14:10:05;;;;;;;2.43;2.10;;;28.90;64.90;;;;;;5053121;28;20478;-50